Latest Coastal Weather Observations for Ballina

IDN60701

Issued at 3:22 pm EDT Monday 26 January 2015 (issued every 10 minutes, with the page automatically refreshed every 10 minutes)

About coastal observations | Map of coastal stations | Coastal observations for NSW | Marine services | Other Formats
Station Details ID: 058198 Name: BALLINA AIRPORT AWS Lat: -28.84 Lon: 153.56 Height: 1.3 m
Data from the previous 72 hours. | See also: Recent months at Ballina
Date/Time
EDT
Temp

°C
Wind Pressure Rain
since 9am
mm
Weather Cloud Vis
km
Sea
Height
m
Swell
Dir
 
Speed
knots
Gust
knots
hPa Trend Height
m
Period
s
Dir
26/03:00pm 28.2 ESE 12 17 1007.3 - 0.2 - Mostly cloudy 10 - - - -
26/02:30pm 28.1 SE 10 15 1007.6 - 0.2 - Partly cloudy 10 - - - -
26/02:00pm 29.1 SSE 11 16 1007.3 - 0.2 - Partly cloudy 10 - - - -
26/01:46pm 29.7 SE 11 15 1007.3 - 0.2 - Partly cloudy 10 - - - -
26/01:30pm 29.2 SSE 12 15 1007.5 - 0.2 - Partly cloudy 10 - - - -
26/01:00pm 29.2 SSE 10 15 1007.9 - 0.2 - Partly cloudy 10 - - - -
26/12:30pm 29.2 S 8 12 1008.1 - 0.2 - Partly cloudy 10 - - - -
26/12:22pm 28.6 SSE 9 12 1008.2 - 0.0 - Partly cloudy 10 - - - -
26/12:00pm 29.2 SE 8 11 1008.2 - 0.0 - - 10 - - - -
26/11:30am 29.2 SE 6 10 1008.2 - 0.0 - - 10 - - - -
26/11:00am 29.2 SSE 6 9 1008.3 - 0.0 - - 10 - - - -
26/10:30am 28.9 SSE 5 9 1008.3 - 0.0 - - 10 - - - -
26/10:00am 28.7 SE 5 9 1008.2 - 0.0 - - 10 - - - -
26/09:30am 28.5 SSW 5 8 1008.1 - 0.0 - - 10 - - - -
26/09:00am 27.3 SW 6 10 1008.0 - 0.0 - - 10 - - - -
26/08:30am 26.2 WSW 5 6 1007.9 - 0.0 - - 10 - - - -
26/08:00am 25.0 W 4 5 1007.8 - 0.0 - - 10 - - - -
26/07:30am 23.7 CALM 0 0 1007.6 - 0.0 - - 10 - - - -
26/07:00am 22.3 WNW 3 5 1007.2 - 0.0 - - 10 - - - -
26/06:30am 21.1 CALM 0 0 1006.7 - 0.0 - - 10 - - - -
26/06:00am 21.0 CALM 0 0 1006.2 - 0.0 - - 10 - - - -
26/05:30am 21.3 CALM 0 0 1006.1 - 0.0 - - 10 - - - -
26/05:00am 21.5 CALM 0 3 1006.0 - 0.0 - - 10 - - - -
26/04:30am 21.5 CALM 0 0 1005.9 - 0.0 - - 10 - - - -
26/04:00am 21.8 NNW 2 3 1005.7 - 0.0 - - 10 - - - -
26/03:30am 22.5 NNW 3 5 1005.5 - 0.0 - - 10 - - - -
26/03:00am 22.4 WNW 2 3 1005.6 - 0.0 - - 10 - - - -
26/02:30am 22.7 WNW 4 5 1005.9 - 0.0 - - 10 - - - -
26/02:00am 23.0 WNW 5 7 1006.2 - 0.0 - - 10 - - - -
26/01:30am 23.2 WSW 5 6 1006.4 - 0.0 - - 10 - - - -
26/01:00am 23.2 WNW 4 6 1006.3 - 0.0 - - 10 - - - -
26/12:30am 23.3 W 4 6 1006.0 - 0.0 - - 10 - - - -
26/12:00am 23.7 WNW 5 7 1006.2 - 0.0 - Mostly cloudy 10 - - - -
 
Date/Time
EDT
Temp

°C
Wind Pressure Rain
since 9am
mm
Weather Cloud Vis
km
Sea
Height
m
Swell
Dir
 
Speed
knots
Gust
knots
hPa Trend Height
m
Period
s
Dir
25/11:30pm 24.1 W 4 6 1006.0 - 0.0 - - 10 - - - -
25/11:00pm 24.6 WNW 7 10 1006.3 - 0.0 - - 10 - - - -
25/10:30pm 25.5 NW 5 8 1006.4 - 0.0 - - 10 - - - -
25/10:00pm 25.5 W 5 7 1006.7 - 0.0 - - 10 - - - -
25/09:30pm 25.8 W 5 7 1006.1 - 0.0 - - 10 - - - -
25/09:00pm 26.6 NW 5 7 1006.0 - 0.0 - Cloudy 10 - - - -
25/08:30pm 26.9 NNW 8 11 1005.2 - 0.0 - Partly cloudy 10 - - - -
25/08:00pm 27.6 NNW 10 12 1004.8 - 0.0 - Partly cloudy 10 - - - -
25/07:30pm 27.6 NNW 5 7 1004.4 - 0.0 - Partly cloudy 10 - - - -
25/07:00pm 28.1 NE 8 11 1004.1 - 0.0 - Partly cloudy 10 - - - -
25/06:30pm 29.0 NE 8 11 1003.1 - 0.0 - - 10 - - - -
25/06:00pm 30.3 NE 9 11 1003.1 - 0.0 - Partly cloudy 10 - - - -
25/05:30pm 30.2 NE 11 15 1003.2 - 0.0 - - 10 - - - -
25/05:00pm 31.0 NE 10 13 1003.0 - 0.0 - - 10 - - - -
25/04:30pm 31.6 NE 11 15 1002.9 - 0.0 - - 10 - - - -
25/04:00pm 31.9 NE 12 15 1003.1 - 0.0 - - 10 - - - -
25/03:30pm 31.6 NE 11 15 1003.2 - 0.0 - - 10 - - - -
25/03:00pm 31.6 ENE 12 15 1003.4 - 0.0 - - 10 - - - -
25/02:30pm 31.8 NE 11 14 1003.5 - 0.0 - - 10 - - - -
25/02:00pm 31.5 NE 9 12 1003.6 - 0.0 - - 10 - - - -
25/01:30pm 31.6 ENE 9 12 1003.8 - 0.0 - - 10 - - - -
25/01:00pm 31.4 ENE 9 11 1004.1 - 0.0 - - 10 - - - -
25/12:30pm 31.7 SW 8 13 1004.3 - 0.0 - Partly cloudy 10 - - - -
25/12:00pm 32.2 W 6 10 1004.6 - 0.0 - - 10 - - - -
25/11:30am 31.9 WNW 8 13 1004.9 - 0.0 - - 10 - - - -
25/11:00am 31.0 WNW 8 11 1005.1 - 0.0 - - 10 - - - -
25/10:30am 30.4 WNW 7 11 1005.2 - 0.0 - - 10 - - - -
25/10:00am 29.8 NW 8 12 1005.3 - 0.0 - - 10 - - - -
25/09:30am 28.6 WNW 2 6 1005.6 - 0.0 - - 10 - - - -
25/09:00am 27.5 WNW 3 5 1005.8 - 5.4 - - 10 - - - -
25/08:30am 25.7 NNW 4 6 1005.7 - 5.4 - - 10 - - - -
25/08:00am 24.0 WSW 1 3 1005.8 - 5.4 - - 10 - - - -
25/07:30am 23.1 CALM 0 0 1005.5 - 5.4 - - 10 - - - -
25/07:00am 22.2 CALM 0 0 1005.2 - 5.4 - - 10 - - - -
25/06:30am 21.1 N 5 6 1005.0 - 5.4 - - 10 - - - -
25/06:00am 20.9 N 4 5 1004.8 - 5.4 - - 10 - - - -
25/05:30am 20.5 CALM 0 0 1004.9 - 5.4 - - 10 - - - -
25/05:00am 20.4 CALM 0 0 1004.9 - 5.4 - - 10 - - - -
25/04:30am 20.6 CALM 0 0 1004.9 - 5.4 - - 10 - - - -
25/04:00am 21.3 N 3 5 1004.8 - 5.4 - - 10 - - - -
25/03:30am 20.6 CALM 0 2 1004.8 - 5.4 - - 10 - - - -
25/03:00am 20.8 NNE 1 3 1004.9 - 5.4 - Mostly clear 10 - - - -
25/02:30am 21.2 CALM 0 4 1005.1 - 5.4 - - 10 - - - -
25/02:00am 21.2 CALM 0 0 1005.4 - 5.4 - Partly cloudy 10 - - - -
25/01:30am 21.3 CALM 0 0 1005.8 - 5.4 - Partly cloudy 10 - - - -
25/01:00am 21.4 NNE 3 3 1006.1 - 5.4 - - 10 - - - -
25/12:30am 21.4 NNE 3 3 1006.2 - 5.4 - - 10 - - - -
25/12:00am 22.0 CALM 0 0 1006.5 - 5.4 - - 10 - - - -
 
Date/Time
EDT
Temp

°C
Wind Pressure Rain
since 9am
mm
Weather Cloud Vis
km
Sea
Height
m
Swell
Dir
 
Speed
knots
Gust
knots
hPa Trend Height
m
Period
s
Dir
24/11:30pm 21.9 CALM 0 0 1006.7 - 5.4 - - 10 - - - -
24/11:00pm 22.2 CALM 0 0 1006.7 - 5.4 - - 10 - - - -
24/10:30pm 22.4 CALM 0 0 1006.5 - 5.4 - - 10 - - - -
24/10:00pm 22.9 CALM 0 0 1006.3 - 5.4 - - 10 - - - -
24/09:30pm 23.2 CALM 0 0 1006.0 - 5.4 - - 10 - - - -
24/09:00pm 23.6 CALM 0 0 1005.8 - 5.4 - Mostly clear 10 - - - -
24/08:30pm 23.8 E 2 3 1005.4 - 5.4 - Partly cloudy 10 - - - -
24/08:00pm 25.0 CALM 0 0 1005.2 - 5.4 - - 10 - - - -
24/07:30pm 25.9 ESE 4 5 1005.0 - 5.4 - Partly cloudy 10 - - - -
24/07:00pm 26.2 SSE 5 7 1005.1 - 5.4 - Partly cloudy 10 - - - -
24/06:30pm 27.0 SSE 6 8 1005.0 - 5.4 - - 10 - - - -
24/06:00pm 27.0 SSE 8 11 1004.8 - 5.4 - Partly cloudy 10 - - - -
24/05:30pm 27.3 SSE 9 11 1004.8 - 5.4 - Partly cloudy 10 - - - -
24/05:00pm 27.3 S 7 10 1004.9 - 5.4 - Partly cloudy 10 - - - -
24/04:30pm 27.7 S 8 13 1005.2 - 5.4 - Partly cloudy 10 - - - -
24/04:00pm 27.4 SSE 10 14 1005.6 - 5.4 - Partly cloudy 10 - - - -
24/03:30pm 27.8 SSE 9 14 1005.7 - 5.4 - Cloudy 10 - - - -
24/03:00pm 27.1 SE 10 13 1006.1 - 5.4 - Mostly cloudy 10 - - - -
24/02:30pm 27.8 SSE 8 12 1006.3 - 5.4 - Partly cloudy 10 - - - -
24/02:00pm 27.9 SSE 8 11 1006.4 - 5.4 - Partly cloudy 10 - - - -
24/01:30pm 27.0 SE 8 11 1006.7 - 5.4 - Partly cloudy 10 - - - -
24/01:00pm 27.1 SSE 7 9 1006.7 - 5.4 - Partly cloudy 10 - - - -
24/12:30pm 26.3 SSE 7 11 1006.8 - 5.4 - Partly cloudy 10 - - - -
24/12:00pm 26.3 SSE 5 7 1007.0 - 5.4 - Cloudy 10 - - - -
24/11:42am 26.2 SSE 5 9 1007.1 - 5.4 - Partly cloudy 10 - - - -
24/11:30am 25.9 SSW 4 7 1007.2 - 5.4 - Partly cloudy 10 - - - -
24/11:05am 25.3 WSW 3 6 1007.2 - 5.4 - Partly cloudy 10 - - - -
24/11:00am 25.2 WSW 1 5 1007.4 - 5.4 - Partly cloudy 10 - - - -
24/10:30am 23.6 WNW 4 6 1007.3 - 5.4 - Partly cloudy 10 - - - -
24/10:04am 22.7 NW 4 6 1007.5 - 5.2 - Partly cloudy 8 - - - -
24/10:00am 22.6 NW 4 5 1007.5 - 5.2 - Partly cloudy 7 - - - -
24/09:38am 22.3 NW 5 7 1007.6 - 3.8 - Partly cloudy 2 - - - -
24/09:36am 22.4 WNW 6 8 1007.6 - 2.4 - Partly cloudy 5 - - - -
24/09:30am 22.4 WNW 7 9 1007.4 - 1.8 - Partly cloudy 10 - - - -
24/09:25am 22.2 WNW 7 9 1007.4 - 1.8 - Partly cloudy 10 - - - -
24/09:00am 22.1 WNW 3 5 1007.6 - 23.4 Rain Cloudy 0.5 - - - -
24/08:32am 22.2 WNW 7 10 1007.4 - 7.2 - Partly cloudy 5 - - - -
24/08:30am 22.3 NW 7 10 1007.4 - 6.6 - Partly cloudy 7 - - - -
24/08:04am 22.2 N 8 14 1007.5 - 6.0 - Partly cloudy 10 - - - -
24/08:00am 22.3 N 9 14 1007.4 - 6.0 - Partly cloudy 10 - - - -
24/07:30am 23.3 NNW 4 9 1007.1 - 5.6 - Partly cloudy 10 - - - -
24/07:00am 23.3 S 5 6 1006.8 - 5.6 - Partly cloudy 10 - - - -
24/06:30am 22.7 SE 8 12 1006.4 - 5.6 - Partly cloudy 9 - - - -
24/06:00am 23.4 SE 6 13 1006.2 - 5.6 - Cloudy 10 - - - -
24/05:30am 22.9 SE 3 5 1005.9 - 5.6 - Partly cloudy 10 - - - -
24/05:00am 23.6 E 9 13 1005.5 - 5.6 - Partly cloudy 10 - - - -
24/04:30am 23.7 ESE 5 6 1005.5 - 5.6 - Partly cloudy 10 - - - -
24/04:00am 23.4 SE 7 10 1005.1 - 5.6 - Partly cloudy 10 - - - -
24/03:30am 23.3 ESE 7 13 1005.4 - 5.6 - Partly cloudy 10 - - - -
24/03:11am 23.9 SE 7 16 1005.7 - 5.6 - Partly cloudy 5 - - - -
24/03:00am 24.4 SE 6 9 1005.6 - 4.6 - Cloudy 10 - - - -
24/02:30am 24.4 SE 9 13 1005.5 - 4.6 - Partly cloudy 10 - - - -
24/02:00am 24.3 SE 7 11 1005.7 - 4.6 - Partly cloudy 10 - - - -
24/01:30am 24.3 ESE 6 9 1006.1 - 4.6 - Partly cloudy 10 - - - -
24/01:00am 24.3 ESE 7 9 1006.6 - 4.6 - Partly cloudy 10 - - - -
24/12:30am 24.3 ESE 6 10 1007.0 - 4.6 - Partly cloudy 10 - - - -
24/12:00am 24.2 E 6 8 1007.5 - 4.6 - Cloudy 10 - - - -
 
Date/Time
EDT
Temp

°C
Wind Pressure Rain
since 9am
mm
Weather Cloud Vis
km
Sea
Height
m
Swell
Dir
 
Speed
knots
Gust
knots
hPa Trend Height
m
Period
s
Dir
23/11:30pm 24.2 E 7 10 1007.7 - 4.6 - Partly cloudy 10 - - - -
23/11:00pm 24.3 E 6 11 1008.1 - 4.6 - Partly cloudy 10 - - - -
23/10:30pm 23.7 E 7 10 1008.1 - 4.6 - Partly cloudy 10 - - - -
23/10:00pm 22.2 SE 3 6 1008.0 - 4.6 - Partly cloudy 10 - - - -
23/09:30pm 21.3 WSW 4 5 1007.9 - 4.6 - Partly cloudy 10 - - - -
23/09:00pm 21.2 W 4 6 1008.2 - 4.6 Recent precip. Cloudy 10 - - - -
23/08:30pm 21.3 WSW 5 6 1008.1 - 4.6 - Partly cloudy 10 - - - -
23/08:28pm 21.2 WSW 5 6 1008.2 - 4.6 - Partly cloudy 10 - - - -
23/08:09pm 21.4 W 4 5 1008.3 - 4.4 - Partly cloudy 5 - - - -
23/08:00pm 21.7 NNW 3 5 1008.5 - 3.4 - Partly cloudy 10 - - - -
23/07:30pm 22.3 S 1 3 1008.3 - 3.2 - Partly cloudy 10 - - - -
23/07:00pm 22.2 SSW 6 8 1007.9 - 3.2 - Partly cloudy 10 - - - -
23/06:30pm 22.3 S 7 10 1007.9 - 3.2 - Partly cloudy 10 - - - -
23/06:00pm 22.3 SW 5 7 1007.8 - 3.2 Rain Cloudy 10 - - - -
23/05:30pm 22.5 S 10 13 1007.8 - 2.6 - Partly cloudy 8 - - - -
23/05:00pm 23.1 SSE 8 10 1007.8 - 2.2 - Partly cloudy 9 - - - -
23/04:30pm 23.7 SSE 7 11 1007.8 - 1.8 - Partly cloudy 10 - - - -
23/04:00pm 23.9 SE 8 12 1007.9 - 1.6 - Partly cloudy 10 - - - -
23/03:30pm 25.1 SE 9 13 1007.8 - 1.4 - Partly cloudy 10 - - - -

Other Formats:

Comma delimited format used in spreadsheet applications
http://www.bom.gov.au/fwo/IDN60701/IDN60701.94596.axf

JavaScript Object Notation format (JSON) in row-major order
http://www.bom.gov.au/fwo/IDN60701/IDN60701.94596.json